Opa-locka Executive Airport
KOPF : now visible

Airfield :











YOU CAN JOIN US ON...

 
LOGIN :

Register | Disclaimer

   EN    FR    IT 

 









Legend :    VFR   Marginal VFR   IFR   Intensive IFR   Very Intensive IFR
Visi :
Ceiling :
>= 8 km
>= 3000ft
5 to 8 km
1000 to 3000 ft
1500m to 5 km
500 to 1000 ft
800 to 1500m
200 to 500 ft
< 800m
< 200 ft
Symbols :   Thunderstorms  Fog  Heavy snow  Heavy precipitations  Wind > 20 kt







- Airport Elevation : 8 ft


KOPF - Opa-locka Executive

CURRENT METAR :
  • 201653Z 11005KT 10SM -RA FEW100 28/23 A3009 RMK AO2 LTG DSNT W RAB47 SLP190 T02830233 PNO $

EXPIRED METARs :
  • 201553Z 14009KT 10SM FEW023 SCT100 28/24 A3009 RMK AO2 LTG DSNT W AND NW SLP191 T02780239 PNO $
  • 201530Z 15013KT 10SM VCTS SCT023 SCT035 BKN095 29/24 A3010 RMK AO2 LTG DSNT SE AND W T02940239 PNO $
  • 201453Z 11011KT 10SM VCTS SCT028 BKN037 31/24 A3008 RMK AO2 LTG DSNT SE AND SW SLP188 6//// T03060244 53005 PNO $

TAF KOPF
Valid from the 20 at 15:00 until the 21 at 12:00 UTC


201458Z 2015/2112 12012KT P6SM VCTS SCT025CB SCT050 BKN250
TEMPO 2015/2016 12015G25KT 4SM TSRA BKN025CB
FM201700 12011KT P6SM SCT025 BKN250
FM210200 10006KT P6SM SCT025 SCT050 BKN150
FM210600 10006KT P6SM VCSH SCT025 SCT050 BKN150
KZMA FIR / North America



MET'MAP, your aeronautical weather chart ! - Copyright ORBIFLY December 2007 - Disclaimer

ORBIFLY MET'MAP TEAM :

Programming & Development : Alexandra Zaïnal
Concept & Development : Baudouin d'Aumeries
Co-Development & Prog : Marc-Olivier Méhu
Technical & hardware support : Manuel Goepfert

Contact : metmap@orbifly.com




SOURCES & CREDITS :

   NOAA       Earth
Advisory